createdAt,value
2022-11-17T00:00:22.057Z,1.60
2022-11-17T00:05:33.887Z,1.30
2022-11-17T00:10:33.133Z,0.50
2022-11-17T00:15:32.905Z,1.30
2022-11-17T00:20:49.201Z,1.40
2022-11-17T00:25:48.323Z,0.70
2022-11-17T00:31:04.703Z,0.60
2022-11-17T00:36:03.723Z,0.90
2022-11-17T00:41:03.062Z,0.80
2022-11-17T00:46:02.546Z,0.60
2022-11-17T00:51:04.287Z,0.50
2022-11-17T00:56:03.476Z,0.80
2022-11-17T01:01:02.394Z,1.00
2022-11-17T01:06:09.542Z,0.70
2022-11-17T01:11:17.271Z,0.80
2022-11-17T01:16:19.501Z,0.60
2022-11-17T01:21:22.703Z,0.70
2022-11-17T01:26:25.204Z,0.40
2022-11-17T01:31:26.666Z,0.60
2022-11-17T01:36:29.362Z,0.50
2022-11-17T01:41:30.837Z,0.40
2022-11-17T01:46:37.725Z,0.60
2022-11-17T01:51:40.116Z,0.30
2022-11-17T01:56:45.784Z,0.60
2022-11-17T02:01:56.786Z,0.80
2022-11-17T02:07:03.382Z,0.70
2022-11-17T02:12:03.892Z,0.50
2022-11-17T02:17:11.494Z,0.40
2022-11-17T02:22:54.417Z,0.50
2022-11-17T02:28:17.283Z,0.50
2022-11-17T02:33:27.532Z,0.50
2022-11-17T02:38:40.691Z,0.40
2022-11-17T02:44:07.013Z,0.70
2022-11-17T02:49:14.797Z,0.60
2022-11-17T02:54:15.879Z,0.50
2022-11-17T02:59:19.066Z,0.70
2022-11-17T03:04:37.014Z,0.40
2022-11-17T03:09:49.807Z,0.50
2022-11-17T03:15:04.900Z,0.60
2022-11-17T03:20:15.644Z,0.70
2022-11-17T03:25:21.451Z,0.80
2022-11-17T03:30:25.718Z,0.40
2022-11-17T03:35:33.715Z,0.50
2022-11-17T03:40:36.267Z,0.50
2022-11-17T03:45:39.218Z,0.50
2022-11-17T03:50:42.561Z,0.60
2022-11-17T03:55:53.058Z,0.30
2022-11-17T04:00:55.845Z,0.40
2022-11-17T04:05:54.972Z,0.50
2022-11-17T04:11:11.321Z,0.50
2022-11-17T04:16:11.271Z,0.60
2022-11-17T04:21:10.488Z,0.50
2022-11-17T04:26:27.886Z,0.30
2022-11-17T04:31:29.313Z,0.60
2022-11-17T04:36:31.513Z,0.30
2022-11-17T04:41:49.605Z,0.20
2022-11-17T04:46:49.430Z,0.40
2022-11-17T04:51:49.091Z,0.40
2022-11-17T04:56:49.497Z,0.30
2022-11-17T05:01:49.306Z,0.20
2022-11-17T05:06:49.045Z,0.40
2022-11-17T05:12:05.790Z,0.60
2022-11-17T05:17:10.864Z,0.40
2022-11-17T05:22:30.041Z,0.30
2022-11-17T05:27:30.089Z,0.40
2022-11-17T05:32:29.031Z,0.40
2022-11-17T05:37:28.268Z,0.50
2022-11-17T05:42:27.239Z,0.50
2022-11-17T05:47:26.290Z,0.70
2022-11-17T05:52:25.288Z,0.30
2022-11-17T05:57:33.070Z,0.80
2022-11-17T06:02:36.912Z,0.40
2022-11-17T06:07:37.663Z,0.60
2022-11-17T06:12:36.740Z,0.50
2022-11-17T06:17:42.631Z,0.40
2022-11-17T06:22:47.029Z,0.60
2022-11-17T06:27:50.251Z,0.60
2022-11-17T06:32:51.611Z,0.40
2022-11-17T06:37:50.546Z,0.50
2022-11-17T06:43:06.552Z,0.80
2022-11-17T06:48:06.761Z,0.50
2022-11-17T06:53:13.175Z,0.50
2022-11-17T06:58:14.166Z,0.40
2022-11-17T07:03:14.807Z,0.50
2022-11-17T07:08:14.649Z,0.60
2022-11-17T07:13:13.545Z,0.90
2022-11-17T07:18:12.864Z,0.50
2022-11-17T07:23:11.951Z,0.90
2022-11-17T07:28:11.318Z,0.70
2022-11-17T07:33:10.264Z,0.80
2022-11-17T07:38:08.626Z,0.90
2022-11-17T07:43:08.307Z,0.60
2022-11-17T07:48:09.827Z,0.70
2022-11-17T07:53:09.074Z,0.70
2022-11-17T07:58:08.060Z,1.00
2022-11-17T08:03:08.129Z,0.90
2022-11-17T08:08:09.453Z,0.90
2022-11-17T08:13:08.928Z,0.70
2022-11-17T08:18:08.563Z,0.60
2022-11-17T08:23:06.891Z,0.80
2022-11-17T08:28:07.847Z,1.70
2022-11-17T08:33:06.901Z,1.50
2022-11-17T08:38:05.539Z,1.20
2022-11-17T08:43:05.308Z,1.10
2022-11-17T08:48:04.361Z,1.60
2022-11-17T08:53:05.933Z,1.50
2022-11-17T08:58:06.883Z,2.00
2022-11-17T09:03:08.870Z,1.70
2022-11-17T09:08:37.980Z,1.60
2022-11-17T09:13:26.859Z,1.70
2022-11-17T09:18:25.417Z,1.50
2022-11-17T09:23:24.680Z,1.30
2022-11-17T09:28:25.235Z,1.40
2022-11-17T09:33:24.228Z,2.40
2022-11-17T09:38:22.989Z,2.40
2022-11-17T09:43:31.201Z,2.00
2022-11-17T09:48:51.202Z,2.20
2022-11-17T09:53:59.244Z,1.30
2022-11-17T09:59:04.374Z,2.30
2022-11-17T10:04:04.359Z,1.80
2022-11-17T10:09:20.988Z,1.30
2022-11-17T10:14:29.487Z,2.40
2022-11-17T10:19:31.414Z,1.30
2022-11-17T10:24:42.784Z,2.20
2022-11-17T10:29:41.604Z,2.20
2022-11-17T10:34:41.935Z,2.10
2022-11-17T10:39:44.173Z,2.20
2022-11-17T10:44:51.427Z,1.00
2022-11-17T10:50:05.924Z,1.80
2022-11-17T10:55:24.443Z,0.80
2022-11-17T11:00:35.169Z,1.50
2022-11-17T11:05:33.655Z,2.20
2022-11-17T11:10:56.870Z,1.80
2022-11-17T11:16:16.350Z,1.50
2022-11-17T11:21:26.104Z,2.40
2022-11-17T11:26:50.004Z,2.40
2022-11-17T11:32:07.937Z,1.30
2022-11-17T11:37:12.800Z,2.40
2022-11-17T11:42:40.731Z,1.80
2022-11-17T11:47:59.014Z,1.20
2022-11-17T11:53:06.071Z,1.40
2022-11-17T11:58:13.605Z,1.60
2022-11-17T12:03:26.371Z,1.70
2022-11-17T12:08:38.064Z,1.70
2022-11-17T12:13:43.813Z,1.50
2022-11-17T12:18:46.651Z,1.80
2022-11-17T12:24:26.671Z,1.20
2022-11-17T12:29:50.219Z,1.30
2022-11-17T12:35:26.906Z,1.30
2022-11-17T12:40:49.479Z,1.70
2022-11-17T12:46:12.382Z,1.30
2022-11-17T12:51:24.987Z,1.80
2022-11-17T12:56:54.295Z,1.80
2022-11-17T13:02:06.829Z,1.70
2022-11-17T13:07:08.832Z,1.70
2022-11-17T13:12:11.906Z,1.60
2022-11-17T13:17:17.043Z,1.50
2022-11-17T13:22:21.562Z,1.60
2022-11-17T13:27:28.714Z,1.50
2022-11-17T13:32:31.691Z,1.40
2022-11-17T13:37:33.171Z,2.50
2022-11-17T13:42:36.832Z,2.20
2022-11-17T13:47:50.637Z,2.70
2022-11-17T13:52:53.217Z,2.00
2022-11-17T13:58:02.112Z,1.80
2022-11-17T14:03:04.058Z,2.20
2022-11-17T14:08:25.922Z,2.20
2022-11-17T14:13:33.696Z,1.80
2022-11-17T14:18:37.823Z,1.30
2022-11-17T14:23:37.259Z,2.00
2022-11-17T14:28:35.933Z,1.40
2022-11-17T14:33:34.735Z,2.40
2022-11-17T14:38:34.043Z,2.20
2022-11-17T14:43:32.668Z,2.30
2022-11-17T14:48:31.520Z,2.20
2022-11-17T14:53:30.823Z,2.20
2022-11-17T14:58:29.752Z,2.10
2022-11-17T15:03:28.853Z,2.40
2022-11-17T15:08:27.642Z,2.10
2022-11-17T15:13:28.032Z,2.20
2022-11-17T15:18:26.910Z,2.70
2022-11-17T15:23:25.632Z,3.20
2022-11-17T15:28:24.119Z,3.20
2022-11-17T15:33:23.125Z,3.30
2022-11-17T15:38:21.382Z,3.50
2022-11-17T15:43:20.723Z,3.60
2022-11-17T15:48:19.510Z,6.20
2022-11-17T15:53:18.859Z,6.10
2022-11-17T15:58:18.512Z,6.40
2022-11-17T16:03:17.625Z,6.90
2022-11-17T16:08:16.978Z,7.30
2022-11-17T16:13:15.930Z,7.80
2022-11-17T16:18:14.504Z,10.50
2022-11-17T16:23:13.760Z,11.50
2022-11-17T16:28:14.225Z,11.60
2022-11-17T16:33:17.605Z,10.70
2022-11-17T16:38:19.434Z,13.00
2022-11-17T16:43:18.590Z,9.90
2022-11-17T16:48:18.586Z,10.50
2022-11-17T16:53:17.896Z,9.40
2022-11-17T16:58:16.517Z,10.50
2022-11-17T17:03:17.747Z,10.40
2022-11-17T17:08:17.492Z,10.40
2022-11-17T17:13:16.614Z,11.40
2022-11-17T17:18:15.765Z,10.40
2022-11-17T17:23:14.996Z,11.10
2022-11-17T17:28:14.441Z,9.80
2022-11-17T17:33:13.746Z,9.70
2022-11-17T17:38:13.056Z,8.90
2022-11-17T17:43:12.235Z,10.00
2022-11-17T17:48:11.322Z,10.50
2022-11-17T17:53:10.237Z,11.30
2022-11-17T17:58:09.401Z,9.80
2022-11-17T18:03:08.930Z,8.80
2022-11-17T18:08:08.623Z,9.90
2022-11-17T18:13:10.847Z,10.00
2022-11-17T18:18:10.467Z,10.80
2022-11-17T18:23:10.201Z,9.50
2022-11-17T18:28:09.367Z,8.00
2022-11-17T18:33:08.700Z,8.70
2022-11-17T18:38:09.229Z,7.00
2022-11-17T18:43:07.790Z,9.00
2022-11-17T18:48:07.167Z,9.40
2022-11-17T18:53:09.170Z,8.10
2022-11-17T18:58:22.539Z,7.70
2022-11-17T19:03:28.763Z,9.00
2022-11-17T19:08:29.067Z,7.80
2022-11-17T19:13:30.053Z,8.50
2022-11-17T19:18:28.936Z,7.80
2022-11-17T19:23:28.803Z,9.80
2022-11-17T19:28:27.966Z,10.00
2022-11-17T19:33:29.483Z,9.40
2022-11-17T19:38:28.312Z,8.90
2022-11-17T19:43:30.085Z,8.80
2022-11-17T19:48:32.716Z,10.00
2022-11-17T19:53:31.236Z,9.60
2022-11-17T19:58:31.117Z,8.40
2022-11-17T20:03:30.253Z,7.20
2022-11-17T20:08:30.081Z,5.50
2022-11-17T20:13:30.943Z,3.50
2022-11-17T20:18:30.910Z,4.00
2022-11-17T20:23:30.261Z,4.20
2022-11-17T20:28:32.283Z,4.90
2022-11-17T20:33:32.613Z,4.50
2022-11-17T20:38:31.816Z,5.50
2022-11-17T20:43:31.603Z,5.60
2022-11-17T20:48:32.634Z,5.70
2022-11-17T20:53:32.855Z,4.60
2022-11-17T20:58:33.014Z,4.30
2022-11-17T21:03:32.251Z,6.50
2022-11-17T21:08:33.466Z,4.70
2022-11-17T21:13:35.625Z,4.70
2022-11-17T21:18:36.970Z,5.10
2022-11-17T21:23:36.113Z,4.60
2022-11-17T21:28:34.613Z,6.70
2022-11-17T21:33:33.734Z,8.80
2022-11-17T21:38:33.518Z,8.20
2022-11-17T21:43:39.289Z,7.60
2022-11-17T21:48:40.414Z,8.30
2022-11-17T21:53:39.233Z,8.90
2022-11-17T21:58:38.568Z,7.70
2022-11-17T22:03:37.923Z,8.70
2022-11-17T22:08:41.006Z,5.60
2022-11-17T22:13:41.107Z,7.70
2022-11-17T22:18:41.093Z,9.20
2022-11-17T22:23:40.413Z,10.00
2022-11-17T22:28:39.563Z,9.50
2022-11-17T22:33:40.119Z,8.30
2022-11-17T22:38:39.617Z,8.90
2022-11-17T22:43:38.894Z,6.00
2022-11-17T22:48:41.208Z,7.10
2022-11-17T22:53:40.435Z,10.60
2022-11-17T22:58:39.584Z,8.90
2022-11-17T23:03:38.983Z,8.20
2022-11-17T23:08:37.925Z,8.50
2022-11-17T23:13:37.955Z,6.80
2022-11-17T23:18:38.335Z,6.30
2022-11-17T23:23:40.014Z,4.70
2022-11-17T23:28:39.402Z,4.40
2022-11-17T23:33:40.377Z,4.40
2022-11-17T23:38:39.568Z,6.80
2022-11-17T23:43:38.798Z,6.60
2022-11-17T23:48:38.523Z,6.60
2022-11-17T23:53:38.092Z,5.40
2022-11-17T23:58:37.103Z,3.90
